Time;durP1;ratioP1;P1;durP2;ratioP2;P2;SDS_P1;SDS_P2;PMS_P1;PMS_P2;Temp;Humidity;BMP_temperature;BMP_pressure;BME280_temperature;BME280_humidity;BME280_pressure;Samples;Min_cycle;Max_cycle;Signal;HPM_P1;HPM_P2
2023/06/14 00:00:43;;;;;;;3.97;3.33;;;16.00;99.90;;;;;;5059345;28;20174;-81
2023/06/14 00:03:09;;;;;;;3.77;3.10;;;15.90;1.00;;;;;;5041149;28;20205;-80
2023/06/14 00:05:40;;;;;;;3.50;3.20;;;15.80;1.00;;;;;;5058960;28;20201;-80
2023/06/14 00:08:07;;;;;;;5.20;3.03;;;15.60;1.00;;;;;;5041262;28;20706;-80
2023/06/14 00:10:35;;;;;;;3.50;3.20;;;15.30;1.00;;;;;;5058966;28;20253;-79
2023/06/14 00:13:04;;;;;;;4.23;3.40;;;15.20;90.10;;;;;;5040807;28;20173;-80
2023/06/14 00:15:31;;;;;;;4.70;3.37;;;14.90;99.90;;;;;;5058841;28;20181;-79
2023/06/14 00:18:00;;;;;;;4.20;3.40;;;14.90;1.00;;;;;;5041137;28;20174;-80
2023/06/14 00:20:30;;;;;;;5.80;3.60;;;14.90;1.00;;;;;;5058600;28;20193;-80
2023/06/14 00:22:56;;;;;;;4.13;3.20;;;15.00;99.90;;;;;;5040862;28;20177;-80
2023/06/14 00:25:25;;;;;;;4.00;3.60;;;15.00;99.90;;;;;;5058670;28;20170;-80
2023/06/14 00:27:51;;;;;;;5.53;3.50;;;15.10;99.90;;;;;;5040562;28;20173;-80
2023/06/14 00:30:16;;;;;;;4.00;3.50;;;15.20;99.90;;;;;;5040250;28;20667;-80
2023/06/14 00:32:42;;;;;;;3.80;3.33;;;15.10;38.50;;;;;;5040441;28;20178;-80
2023/06/14 00:35:09;;;;;;;3.60;3.13;;;15.20;8.00;;;;;;5059024;28;20169;-80
2023/06/14 00:37:35;;;;;;;3.87;3.17;;;15.10;99.90;;;;;;5058033;28;20268;-80
2023/06/14 00:40:01;;;;;;;3.80;3.30;;;15.20;40.90;;;;;;5058185;28;20212;-80
2023/06/14 00:42:27;;;;;;;4.63;3.30;;;15.20;1.00;;;;;;5058274;28;20181;-80
2023/06/14 00:44:53;;;;;;;4.00;3.53;;;15.20;99.90;;;;;;5040603;28;20174;-80
2023/06/14 00:47:19;;;;;;;3.73;3.40;;;15.50;98.70;;;;;;5058151;28;20196;-80
2023/06/14 00:49:52;;;;;;;5.10;3.73;;;15.60;1.00;;;;;;5058233;28;20178;-80
2023/06/14 00:52:18;;;;;;;5.00;3.30;;;15.50;1.00;;;;;;5040600;28;20200;-80
2023/06/14 00:54:44;;;;;;;4.57;3.53;;;15.50;1.00;;;;;;5057869;28;20162;-80
2023/06/14 00:57:11;;;;;;;4.07;3.40;;;15.40;1.00;;;;;;5039582;28;20292;-80
2023/06/14 00:59:47;;;;;;;5.27;3.70;;;15.10;98.40;;;;;;5057802;28;20169;-78
2023/06/14 01:02:14;;;;;;;5.90;3.53;;;14.90;99.90;;;;;;5058149;28;20158;-80
2023/06/14 01:04:45;;;;;;;3.63;3.30;;;14.80;1.00;;;;;;5058135;28;20668;-80
2023/06/14 01:07:35;;;;;;;4.23;3.43;;;14.60;1.00;;;;;;5057876;28;20201;-80
2023/06/14 01:10:09;;;;;;;4.17;3.43;;;14.40;99.90;;;;;;5039785;28;20578;-80
2023/06/14 01:13:05;;;;;;;3.83;3.20;;;14.20;1.00;;;;;;5058110;28;20225;-80
2023/06/14 01:15:31;;;;;;;5.50;3.30;;;14.10;1.00;;;;;;5039943;28;20172;-80
2023/06/14 01:18:06;;;;;;;4.83;3.53;;;14.30;1.00;;;;;;5044402;28;20178;-80
2023/06/14 01:20:36;;;;;;;4.83;3.90;;;14.10;1.00;;;;;;5018192;28;20620;-80
2023/06/14 01:23:02;;;;;;;4.63;3.50;;;14.20;1.00;;;;;;5017767;28;20548;-80
2023/06/14 01:25:28;;;;;;;4.67;3.53;;;14.40;1.00;;;;;;5000838;28;20178;-80
2023/06/14 01:27:58;;;;;;;4.00;3.53;;;14.40;63.40;;;;;;5000153;28;20178;-80
2023/06/14 01:30:27;;;;;;;4.93;3.60;;;14.40;1.00;;;;;;5000125;28;20167;-81
2023/06/14 01:32:54;;;;;;;6.07;3.83;;;14.40;1.00;;;;;;5017916;28;20194;-80
2023/06/14 01:35:20;;;;;;;5.33;3.60;;;14.40;1.00;;;;;;5000426;28;20255;-80
2023/06/14 01:37:48;;;;;;;4.67;3.77;;;14.30;2.20;;;;;;4999877;28;20677;-80
2023/06/14 01:40:15;;;;;;;4.07;3.60;;;14.30;99.90;;;;;;5017335;28;20799;-80
2023/06/14 01:42:42;;;;;;;5.03;3.63;;;14.20;99.90;;;;;;5018384;28;20171;-80
2023/06/14 01:45:09;;;;;;;5.50;3.67;;;14.00;99.90;;;;;;5000560;28;20175;-80
2023/06/14 01:47:35;;;;;;;5.83;3.63;;;14.00;1.00;;;;;;5000192;28;20191;-80
2023/06/14 01:50:05;;;;;;;5.23;3.70;;;13.80;1.00;;;;;;5017551;28;20182;-80
2023/06/14 01:52:31;;;;;;;4.33;3.40;;;13.80;1.00;;;;;;4999599;28;20199;-80
2023/06/14 01:54:57;;;;;;;3.67;3.37;;;13.70;1.00;;;;;;5017430;28;20197;-80
2023/06/14 01:57:25;;;;;;;5.30;3.83;;;13.70;1.00;;;;;;4999652;28;20685;-80
2023/06/14 01:59:50;;;;;;;5.47;3.90;;;13.70;4.20;;;;;;5017607;28;20693;-80
2023/06/14 02:02:16;;;;;;;3.60;3.30;;;13.70;1.00;;;;;;5018003;28;20253;-80
2023/06/14 02:04:42;;;;;;;3.87;3.57;;;13.70;63.40;;;;;;5000264;28;20552;-81
2023/06/14 02:07:08;;;;;;;4.60;3.90;;;13.70;11.40;;;;;;5017378;28;20193;-80
2023/06/14 02:09:34;;;;;;;4.77;3.80;;;13.70;1.00;;;;;;4999292;28;20234;-79
2023/06/14 02:12:00;;;;;;;5.73;3.80;;;13.70;1.00;;;;;;4999575;28;20198;-80
2023/06/14 02:14:26;;;;;;;4.27;3.57;;;13.90;99.90;;;;;;5017562;28;20199;-80
2023/06/14 02:16:52;;;;;;;5.00;3.63;;;14.00;99.90;;;;;;5017379;28;20195;-80
2023/06/14 02:19:20;;;;;;;4.00;3.57;;;13.90;99.90;;;;;;5017733;28;20178;-80
2023/06/14 02:21:46;;;;;;;5.63;3.80;;;14.10;99.90;;;;;;5017491;28;20214;-80
2023/06/14 02:24:12;;;;;;;4.30;3.70;;;14.10;54.90;;;;;;4999257;28;20185;-80
2023/06/14 02:26:37;;;;;;;3.90;3.47;;;14.00;99.90;;;;;;5017291;28;20210;-80
2023/06/14 02:29:09;;;;;;;4.53;3.83;;;13.90;99.90;;;;;;4999808;28;20189;-80
2023/06/14 02:31:35;;;;;;;4.53;3.57;;;13.90;99.90;;;;;;4999781;28;20202;-80
2023/06/14 02:34:01;;;;;;;6.83;4.10;;;13.70;99.90;;;;;;4999306;28;20185;-81
2023/06/14 02:36:27;;;;;;;5.57;3.83;;;13.50;99.90;;;;;;5016998;28;20254;-81
2023/06/14 02:38:54;;;;;;;5.20;3.83;;;13.50;1.00;;;;;;4999608;28;20599;-80
2023/06/14 02:41:19;;;;;;;5.20;3.53;;;13.50;1.00;;;;;;4999026;28;20623;-80
2023/06/14 02:43:45;;;;;;;4.80;3.87;;;13.60;1.00;;;;;;4999581;28;20650;-80
2023/06/14 02:46:11;;;;;;;5.47;3.70;;;13.60;1.00;;;;;;4999912;28;20195;-82
2023/06/14 02:48:36;;;;;;;5.33;3.83;;;13.50;1.00;;;;;;5000167;28;20236;-80
2023/06/14 02:51:02;;;;;;;3.90;3.53;;;13.50;4.70;;;;;;4999967;28;20198;-81
2023/06/14 02:53:28;;;;;;;4.80;3.80;;;13.30;1.00;;;;;;5004535;28;20262;-80
2023/06/14 02:55:55;;;;;;;4.80;4.03;;;13.20;28.20;;;;;;5008457;28;20214;-80
2023/06/14 02:58:21;;;;;;;5.47;4.10;;;12.90;1.00;;;;;;5018693;28;20185;-80
2023/06/14 03:00:46;;;;;;;4.47;3.77;;;13.00;99.90;;;;;;4998726;28;20629;-80
2023/06/14 03:03:13;;;;;;;4.03;3.63;;;13.10;1.00;;;;;;4999132;28;20175;-80
2023/06/14 03:05:49;;;;;;;5.93;4.17;;;13.20;1.00;;;;;;5016552;28;20210;-80
2023/06/14 03:08:19;;;;;;;4.90;4.10;;;13.30;1.00;;;;;;5016297;28;20147;-79
2023/06/14 03:10:48;;;;;;;4.30;3.90;;;13.40;99.90;;;;;;5016382;28;20198;-80
2023/06/14 03:13:15;;;;;;;6.00;3.60;;;13.30;99.90;;;;;;5016359;28;20179;-81
2023/06/14 03:15:41;;;;;;;4.43;3.70;;;13.40;1.00;;;;;;5016458;28;20205;-80
2023/06/14 03:18:11;;;;;;;6.10;3.90;;;13.40;1.00;;;;;;5015750;28;20171;-80
2023/06/14 03:20:38;;;;;;;5.53;4.10;;;13.50;1.00;;;;;;5000524;28;20666;-80
2023/06/14 03:23:05;;;;;;;6.27;4.50;;;13.50;1.00;;;;;;5002413;28;20557;-81
2023/06/14 03:25:31;;;;;;;6.07;4.00;;;13.60;99.90;;;;;;5020200;28;20666;-81
2023/06/14 03:27:57;;;;;;;4.50;3.93;;;13.50;1.00;;;;;;5019950;28;20202;-80
2023/06/14 03:30:23;;;;;;;5.97;4.03;;;13.50;1.00;;;;;;5002084;28;20171;-80
2023/06/14 03:32:48;;;;;;;4.47;3.80;;;13.30;1.00;;;;;;5020014;28;20179;-80
2023/06/14 03:35:17;;;;;;;4.43;3.73;;;13.20;1.00;;;;;;5020168;28;20668;-79
2023/06/14 03:37:46;;;;;;;4.20;3.60;;;13.10;20.80;;;;;;5019612;28;20163;-80
2023/06/14 03:40:13;;;;;;;5.73;3.90;;;13.10;1.00;;;;;;5002190;28;20190;-80
2023/06/14 03:42:39;;;;;;;4.60;4.10;;;13.10;1.00;;;;;;5020184;28;20175;-80
2023/06/14 03:45:06;;;;;;;5.70;3.83;;;13.10;99.90;;;;;;5019517;28;20186;-81
2023/06/14 03:47:31;;;;;;;6.50;4.00;;;13.20;99.90;;;;;;5002179;28;20230;-80
2023/06/14 03:49:57;;;;;;;4.50;3.80;;;13.20;99.90;;;;;;5019877;28;20179;-79
2023/06/14 03:52:23;;;;;;;4.40;3.80;;;13.30;99.90;;;;;;5001798;28;20230;-80
2023/06/14 03:54:49;;;;;;;4.97;3.83;;;13.40;99.90;;;;;;5001874;28;20176;-80
2023/06/14 03:57:15;;;;;;;4.73;4.00;;;13.40;1.00;;;;;;5001667;28;20261;-80
2023/06/14 03:59:41;;;;;;;4.30;3.90;;;13.40;61.00;;;;;;5019323;28;20556;-80
2023/06/14 04:02:07;;;;;;;4.17;3.70;;;13.30;1.00;;;;;;5019421;28;20669;-80
2023/06/14 04:04:35;;;;;;;6.47;4.30;;;13.30;71.40;;;;;;5019873;28;20254;-80
2023/06/14 04:07:03;;;;;;;4.77;3.90;;;13.40;20.80;;;;;;5001096;28;20202;-80
2023/06/14 04:09:29;;;;;;;4.60;4.17;;;13.40;42.60;;;;;;5001362;28;20175;-80
2023/06/14 04:11:55;;;;;;;5.03;4.13;;;13.50;99.90;;;;;;5001375;28;20681;-80
2023/06/14 04:14:21;;;;;;;5.10;4.20;;;13.50;99.90;;;;;;5001159;28;20179;-79
2023/06/14 04:16:48;;;;;;;5.73;4.50;;;13.50;99.90;;;;;;5019275;28;20195;-80
2023/06/14 04:19:14;;;;;;;6.27;4.47;;;13.50;90.70;;;;;;5019213;28;20174;-79
2023/06/14 04:21:40;;;;;;;5.73;3.90;;;13.60;99.90;;;;;;5019041;28;20183;-80
2023/06/14 04:24:06;;;;;;;5.67;4.00;;;13.60;99.90;;;;;;5019731;28;20179;-80
2023/06/14 04:26:33;;;;;;;4.87;4.20;;;13.70;99.90;;;;;;5019185;28;20257;-80
2023/06/14 04:29:03;;;;;;;4.67;3.93;;;13.70;99.90;;;;;;5001306;28;20182;-80
2023/06/14 04:31:29;;;;;;;5.17;4.30;;;13.80;99.90;;;;;;5018476;28;20194;-80
2023/06/14 04:33:55;;;;;;;7.23;4.50;;;13.80;99.90;;;;;;5004935;28;20262;-80
2023/06/14 04:36:21;;;;;;;4.20;3.80;;;13.80;99.90;;;;;;5004008;28;20199;-79
2023/06/14 04:38:46;;;;;;;6.13;4.50;;;13.80;99.90;;;;;;5004270;28;20229;-80
2023/06/14 04:41:12;;;;;;;5.30;3.87;;;13.80;99.90;;;;;;5009253;28;20177;-80
2023/06/14 04:43:38;;;;;;;4.17;3.77;;;13.80;1.00;;;;;;5058619;28;20189;-80
2023/06/14 04:46:05;;;;;;;5.03;3.90;;;13.80;1.00;;;;;;5042692;28;20201;-80
2023/06/14 04:48:32;;;;;;;6.27;4.50;;;13.80;1.00;;;;;;5046401;28;20201;-79
2023/06/14 04:50:57;;;;;;;5.70;4.53;;;13.90;1.00;;;;;;5043500;28;20204;-80
2023/06/14 04:53:23;;;;;;;5.57;4.50;;;14.00;1.00;;;;;;5041003;28;20169;-79
2023/06/14 04:55:50;;;;;;;5.17;4.00;;;14.00;1.00;;;;;;5061465;28;20255;-79
2023/06/14 04:58:16;;;;;;;4.60;4.13;;;14.10;1.00;;;;;;5045215;28;20158;-79
2023/06/14 05:00:43;;;;;;;6.00;4.30;;;14.20;1.00;;;;;;5044728;28;20186;-78
2023/06/14 05:03:09;;;;;;;5.77;4.30;;;14.20;1.00;;;;;;5044836;28;20188;-80
2023/06/14 05:05:34;;;;;;;5.00;4.23;;;14.30;1.00;;;;;;5062007;28;20267;-81
2023/06/14 05:08:00;;;;;;;5.50;4.10;;;14.40;1.00;;;;;;5044788;28;20178;-80
2023/06/14 05:10:26;;;;;;;4.60;4.10;;;14.40;1.00;;;;;;5043977;28;20177;-79
2023/06/14 05:12:52;;;;;;;8.10;3.93;;;14.40;1.00;;;;;;5044169;28;20173;-80
2023/06/14 05:15:18;;;;;;;4.70;4.20;;;14.40;1.00;;;;;;5061868;28;20205;-80
2023/06/14 05:17:47;;;;;;;6.23;4.20;;;14.40;1.00;;;;;;5044594;28;20181;-79
2023/06/14 05:20:12;;;;;;;5.30;3.90;;;14.40;1.00;;;;;;5044075;28;20213;-79
2023/06/14 05:22:38;;;;;;;6.73;3.90;;;14.50;99.90;;;;;;5043723;28;20173;-79
2023/06/14 05:25:04;;;;;;;5.90;4.10;;;14.40;1.00;;;;;;5042003;28;20174;-81
2023/06/14 05:27:30;;;;;;;5.37;3.70;;;14.40;1.00;;;;;;5042829;28;20194;-80
2023/06/14 05:29:58;;;;;;;5.00;4.50;;;14.40;1.00;;;;;;5042738;28;20180;-81
2023/06/14 05:32:24;;;;;;;4.57;4.03;;;14.50;99.90;;;;;;5043675;28;20201;-79
2023/06/14 05:34:50;;;;;;;7.40;4.53;;;14.50;99.90;;;;;;5060160;28;20224;-80
2023/06/14 05:37:16;;;;;;;5.80;3.70;;;14.50;99.90;;;;;;5043319;28;20284;-80
2023/06/14 05:39:42;;;;;;;4.87;4.10;;;14.70;99.90;;;;;;5042789;28;20173;-80
2023/06/14 05:42:07;;;;;;;4.80;3.87;;;14.70;99.90;;;;;;5060105;28;20174;-79
2023/06/14 05:44:33;;;;;;;4.20;3.77;;;14.80;99.90;;;;;;5034483;28;20549;-80
2023/06/14 05:46:58;;;;;;;4.00;3.67;;;14.80;99.90;;;;;;5041338;28;20211;-80
2023/06/14 05:49:24;;;;;;;4.10;3.70;;;14.80;1.00;;;;;;5040829;28;20185;-78
2023/06/14 05:51:50;;;;;;;5.93;4.10;;;14.90;1.00;;;;;;5040219;28;20208;-80
2023/06/14 05:54:15;;;;;;;5.53;3.70;;;14.90;1.00;;;;;;5058379;28;20652;-78
2023/06/14 05:56:41;;;;;;;4.53;3.60;;;15.10;99.90;;;;;;5058235;28;20642;-78
2023/06/14 05:59:06;;;;;;;4.27;3.87;;;15.20;1.00;;;;;;5040398;28;20170;-81
2023/06/14 06:01:33;;;;;;;4.50;3.70;;;15.10;1.00;;;;;;5063558;28;20198;-80
2023/06/14 06:03:59;;;;;;;4.40;3.70;;;15.20;99.90;;;;;;5049961;28;20203;-80
2023/06/14 06:06:25;;;;;;;3.77;3.20;;;15.20;1.00;;;;;;5049818;28;20194;-81
2023/06/14 06:08:50;;;;;;;3.53;3.10;;;15.40;1.00;;;;;;5058777;28;20256;-80
2023/06/14 06:11:16;;;;;;;4.10;3.47;;;15.40;1.00;;;;;;5058619;28;20201;-81
2023/06/14 06:13:41;;;;;;;4.10;3.07;;;15.50;99.90;;;;;;5041206;28;20585;-82
2023/06/14 06:16:07;;;;;;;6.23;3.50;;;15.60;99.90;;;;;;5058265;28;20190;-82
2023/06/14 06:18:33;;;;;;;4.07;3.17;;;15.70;99.90;;;;;;5041694;28;20174;-81
2023/06/14 06:20:58;;;;;;;4.90;2.97;;;15.80;98.00;;;;;;5064586;28;20149;-81
2023/06/14 06:23:24;;;;;;;3.97;3.17;;;15.80;1.00;;;;;;5070756;28;20174;-82
2023/06/14 06:25:50;;;;;;;3.10;2.80;;;15.80;1.00;;;;;;5053258;28;20219;-82
2023/06/14 06:28:16;;;;;;;4.27;3.30;;;16.00;1.00;;;;;;5052841;28;20539;-83
2023/06/14 06:30:41;;;;;;;3.80;2.90;;;16.00;1.00;;;;;;5053927;28;20181;-79
2023/06/14 06:33:07;;;;;;;3.37;3.07;;;16.20;1.00;;;;;;5053878;28;20200;-81
2023/06/14 06:35:33;;;;;;;3.63;2.93;;;16.20;1.00;;;;;;5054749;28;20241;-82
2023/06/14 06:37:58;;;;;;;4.03;3.53;;;16.20;1.00;;;;;;5051723;28;20177;-81
2023/06/14 06:40:24;;;;;;;4.97;3.30;;;16.30;1.00;;;;;;5042550;28;20181;-83
2023/06/14 06:42:50;;;;;;;4.53;3.40;;;16.30;1.00;;;;;;5029282;28;20598;-81
2023/06/14 06:45:15;;;;;;;3.77;3.40;;;16.40;99.90;;;;;;5063031;28;20193;-81
2023/06/14 06:47:41;;;;;;;3.73;3.40;;;16.40;99.90;;;;;;5046077;28;20178;-80
2023/06/14 06:50:07;;;;;;;4.20;3.53;;;16.40;1.00;;;;;;5065454;28;20178;-82
2023/06/14 06:52:33;;;;;;;4.73;3.67;;;16.60;99.90;;;;;;5066176;28;20336;-81
2023/06/14 06:54:59;;;;;;;5.37;3.30;;;16.70;99.90;;;;;;5064949;28;20178;-83
2023/06/14 06:57:24;;;;;;;4.90;3.60;;;16.70;99.90;;;;;;5064406;28;20213;-81
2023/06/14 06:59:50;;;;;;;3.93;3.20;;;16.70;99.90;;;;;;5045352;28;20174;-80
2023/06/14 07:02:16;;;;;;;4.00;3.23;;;16.80;99.90;;;;;;5044471;28;20173;-79
2023/06/14 07:04:42;;;;;;;3.80;3.20;;;17.00;99.90;;;;;;5044631;28;20189;-81
2023/06/14 07:07:09;;;;;;;4.10;3.70;;;17.00;99.90;;;;;;5045545;28;20570;-81
2023/06/14 07:09:35;;;;;;;4.67;3.63;;;17.00;1.00;;;;;;5064371;28;20678;-83
2023/06/14 07:12:01;;;;;;;5.30;3.20;;;17.10;1.00;;;;;;5064321;28;20205;-80
2023/06/14 07:14:27;;;;;;;3.53;3.10;;;17.30;39.60;;;;;;5063507;28;20185;-81
2023/06/14 07:16:52;;;;;;;3.77;3.13;;;17.30;1.00;;;;;;5063601;28;20186;-80
2023/06/14 07:19:18;;;;;;;4.13;3.10;;;17.30;1.00;;;;;;5065113;28;20182;-81
2023/06/14 07:21:44;;;;;;;3.70;3.30;;;17.30;1.00;;;;;;5062165;28;20202;-83
2023/06/14 07:24:10;;;;;;;4.90;3.30;;;17.40;1.00;;;;;;5043981;28;20201;-82
2023/06/14 07:26:35;;;;;;;4.27;3.30;;;17.40;1.00;;;;;;5044355;28;20240;-81
2023/06/14 07:29:01;;;;;;;10.23;3.47;;;17.60;1.00;;;;;;5061643;28;20228;-82
2023/06/14 07:31:27;;;;;;;3.60;3.27;;;17.70;1.00;;;;;;5060861;28;20228;-81
2023/06/14 07:33:53;;;;;;;6.80;3.63;;;17.90;1.00;;;;;;5043364;28;20178;-81
2023/06/14 07:36:18;;;;;;;5.77;2.87;;;18.00;99.90;;;;;;5061956;28;20205;-82
2023/06/14 07:38:44;;;;;;;4.47;3.00;;;18.10;1.00;;;;;;5062794;28;20170;-81
2023/06/14 07:41:10;;;;;;;4.67;2.90;;;18.10;99.90;;;;;;5043154;28;20188;-80
2023/06/14 07:43:36;;;;;;;6.93;3.00;;;18.20;99.90;;;;;;5044754;28;20607;-80
2023/06/14 07:46:02;;;;;;;3.70;2.73;;;18.30;99.90;;;;;;5061875;28;20585;-81
2023/06/14 07:48:28;;;;;;;3.10;2.70;;;18.40;99.90;;;;;;5061579;28;20185;-79
2023/06/14 07:50:53;;;;;;;3.23;2.73;;;18.60;99.90;;;;;;5043932;28;20194;-81
2023/06/14 07:53:19;;;;;;;4.90;3.00;;;18.70;99.90;;;;;;5045946;28;20173;-79
2023/06/14 07:55:44;;;;;;;3.63;2.90;;;18.70;99.90;;;;;;5062009;28;20304;-80
2023/06/14 07:58:10;;;;;;;6.13;3.70;;;18.80;99.90;;;;;;5061835;28;20170;-80
2023/06/14 08:00:36;;;;;;;4.90;2.70;;;18.80;99.90;;;;;;5062414;28;20203;-81
2023/06/14 08:03:02;;;;;;;4.13;2.97;;;18.80;99.90;;;;;;5061233;28;20207;-82
2023/06/14 08:05:28;;;;;;;3.27;2.77;;;19.00;99.90;;;;;;5043163;28;20185;-80
2023/06/14 08:07:55;;;;;;;3.67;2.90;;;19.00;1.00;;;;;;5044923;28;20178;-82
2023/06/14 08:10:21;;;;;;;4.50;2.70;;;19.10;1.00;;;;;;5045637;28;20174;-82
2023/06/14 08:12:48;;;;;;;5.17;2.90;;;19.10;6.30;;;;;;5045048;28;20224;-82
2023/06/14 08:15:14;;;;;;;6.23;2.83;;;19.20;89.30;;;;;;5064960;28;20178;-82
2023/06/14 08:17:39;;;;;;;4.03;2.70;;;19.20;1.00;;;;;;5049107;28;20195;-79
2023/06/14 08:20:06;;;;;;;3.70;2.80;;;19.30;1.00;;;;;;5066652;28;20543;-82
2023/06/14 08:22:33;;;;;;;3.47;2.90;;;19.40;20.40;;;;;;5047469;28;20182;-81
2023/06/14 08:25:00;;;;;;;3.43;2.83;;;19.60;1.00;;;;;;5060574;28;20281;-81
2023/06/14 08:27:26;;;;;;;3.00;2.70;;;19.70;1.00;;;;;;5062723;28;20201;-81
2023/06/14 08:29:52;;;;;;;3.03;2.70;;;19.80;1.00;;;;;;5046070;28;20184;-81
2023/06/14 08:32:17;;;;;;;2.87;2.50;;;20.00;1.00;;;;;;5047368;28;20204;-80
2023/06/14 08:34:43;;;;;;;3.07;2.63;;;20.10;1.00;;;;;;5047497;28;20173;-81
2023/06/14 08:37:09;;;;;;;3.47;2.40;;;20.40;1.00;;;;;;5066187;28;20205;-83
2023/06/14 08:39:34;;;;;;;3.43;2.40;;;20.50;1.00;;;;;;5048353;28;20221;-82
2023/06/14 08:42:03;;;;;;;2.70;2.50;;;20.60;1.00;;;;;;5043525;28;20208;-80
2023/06/14 08:44:29;;;;;;;2.70;2.50;;;20.60;1.00;;;;;;5042788;28;20170;-81
2023/06/14 08:46:59;;;;;;;2.83;2.50;;;20.20;1.00;;;;;;5048095;28;20236;-81
2023/06/14 08:49:25;;;;;;;3.13;2.50;;;20.00;1.00;;;;;;5066090;28;20198;-79
2023/06/14 08:51:58;;;;;;;3.07;2.50;;;19.70;1.00;;;;;;5047280;28;20695;-82
2023/06/14 08:54:27;;;;;;;3.80;2.50;;;19.50;1.00;;;;;;5047260;28;20692;-81
2023/06/14 08:56:57;;;;;;;2.80;2.40;;;19.30;1.00;;;;;;5047198;28;20265;-81
2023/06/14 08:59:25;;;;;;;2.60;2.37;;;19.40;1.00;;;;;;5047516;28;20174;-80
2023/06/14 09:01:52;;;;;;;2.53;2.33;;;20.00;1.00;;;;;;5048142;28;20550;-80
2023/06/14 09:04:19;;;;;;;4.07;2.50;;;20.40;1.00;;;;;;5066025;28;20607;-81
2023/06/14 09:06:45;;;;;;;3.00;2.60;;;20.50;1.00;;;;;;5046985;28;20193;-80
2023/06/14 09:09:12;;;;;;;5.43;2.70;;;20.60;1.00;;;;;;5064702;28;20169;-81
2023/06/14 09:11:37;;;;;;;2.90;2.70;;;20.70;1.00;;;;;;5064079;28;20192;-80
2023/06/14 09:14:03;;;;;;;3.42;2.50;;;20.70;1.00;;;;;;5065241;28;20170;-80
2023/06/14 09:16:33;;;;;;;3.25;2.60;;;20.80;1.00;;;;;;5046118;28;20197;-81
2023/06/14 09:18:58;;;;;;;5.75;2.60;;;20.70;1.00;;;;;;5047101;28;20181;-82
2023/06/14 09:21:24;;;;;;;3.10;2.63;;;20.30;1.00;;;;;;5048154;28;20177;-82
2023/06/14 09:23:49;;;;;;;3.25;2.53;;;20.60;1.00;;;;;;5047796;28;20182;-81
2023/06/14 09:26:17;;;;;;;2.80;2.55;;;21.10;1.00;;;;;;5048369;28;20278;-82
2023/06/14 09:28:47;;;;;;;5.27;2.87;;;21.00;1.00;;;;;;5047131;28;20177;-81
2023/06/14 09:31:15;;;;;;;3.17;2.60;;;20.80;1.00;;;;;;5047585;28;20243;-82
2023/06/14 09:33:48;;;;;;;3.10;2.70;;;20.80;1.00;;;;;;5065142;28;20549;-81
2023/06/14 09:36:22;;;;;;;3.58;2.75;;;21.20;1.00;;;;;;5064295;28;20189;-82
2023/06/14 09:38:56;;;;;;;3.83;2.58;;;21.40;1.00;;;;;;5066579;28;20188;-81
2023/06/14 09:41:35;;;;;;;3.72;2.50;;;21.20;1.00;;;;;;5047593;28;20271;-82
2023/06/14 09:44:03;;;;;;;2.95;2.53;;;21.20;1.00;;;;;;5064758;28;20230;-81
2023/06/14 09:46:29;;;;;;;3.65;2.45;;;21.10;1.00;;;;;;5055913;28;20978;-82
2023/06/14 09:49:00;;;;;;;2.40;2.20;;;21.00;1.00;;;;;;5047595;28;20178;-82
2023/06/14 09:51:27;;;;;;;5.30;2.50;;;21.00;1.00;;;;;;5047916;28;20212;-82
2023/06/14 09:53:55;;;;;;;2.40;2.10;;;21.20;1.00;;;;;;5066241;28;20173;-84
2023/06/14 09:56:29;;;;;;;3.25;2.60;;;21.20;1.00;;;;;;5031947;28;20214;-82
2023/06/14 09:58:56;;;;;;;2.50;2.30;;;20.90;99.90;;;;;;5047454;28;20177;-82
2023/06/14 10:01:27;;;;;;;2.45;2.25;;;20.60;99.90;;;;;;5047650;28;20423;-80
2023/06/14 10:03:59;;;;;;;2.85;2.53;;;20.80;99.90;;;;;;5067453;28;20536;-83
2023/06/14 10:06:26;;;;;;;3.88;2.17;;;21.30;1.00;;;;;;5066753;28;20194;-85
2023/06/14 10:08:59;;;;;;;2.42;2.22;;;22.00;99.90;;;;;;5066609;28;20177;-82
2023/06/14 10:11:29;;;;;;;3.10;2.38;;;22.20;99.90;;;;;;5048876;28;20223;-86
2023/06/14 10:13:56;;;;;;;2.35;2.15;;;21.80;99.90;;;;;;5047348;28;20216;-81
2023/06/14 10:16:33;;;;;;;3.58;2.50;;;22.40;99.90;;;;;;5065417;28;20201;-81
2023/06/14 10:19:14;;;;;;;2.72;2.53;;;22.70;99.90;;;;;;5049656;28;20174;-81
2023/06/14 10:21:49;;;;;;;4.55;2.45;;;22.90;99.90;;;;;;5020079;28;20174;-81
2023/06/14 10:24:19;;;;;;;3.80;2.58;;;22.90;99.90;;;;;;5018042;28;20174;-82
2023/06/14 10:26:53;;;;;;;3.03;2.28;;;23.00;99.90;;;;;;5019745;28;20446;-83
2023/06/14 10:29:19;;;;;;;3.75;2.22;;;22.60;99.90;;;;;;5018012;28;20812;-82
2023/06/14 10:31:45;;;;;;;3.33;2.83;;;22.20;99.90;;;;;;5036095;28;20292;-84
2023/06/14 10:34:20;;;;;;;2.47;2.28;;;21.90;99.90;;;;;;5037194;28;20564;-83
2023/06/14 10:36:46;;;;;;;3.35;2.53;;;22.50;99.90;;;;;;5019590;28;20200;-83
2023/06/14 10:39:16;;;;;;;3.85;2.58;;;23.00;99.90;;;;;;5019143;28;20171;-83
2023/06/14 10:41:50;;;;;;;2.45;2.25;;;23.30;99.90;;;;;;5019591;28;20268;-85
2023/06/14 10:44:22;;;;;;;2.80;2.60;;;23.70;99.90;;;;;;5038289;28;20170;-84
2023/06/14 10:46:54;;;;;;;11.18;4.47;;;23.70;99.90;;;;;;5018078;28;20202;-82
2023/06/14 10:49:40;;;;;;;19.98;6.80;;;23.90;99.90;;;;;;5015331;28;20181;-82
2023/06/14 10:52:18;;;;;;;7.35;3.95;;;24.10;99.90;;;;;;5015177;28;20676;-82
2023/06/14 10:55:05;;;;;;;7.05;3.80;;;24.20;99.90;;;;;;5035075;28;20242;-82
2023/06/14 10:57:32;;;;;;;3.25;2.60;;;23.90;99.90;;;;;;5034601;28;20225;-83
2023/06/14 11:00:11;;;;;;;3.15;2.50;;;23.70;99.90;;;;;;5034185;28;20209;-82
2023/06/14 11:03:08;;;;;;;3.78;2.42;;;23.40;99.90;;;;;;5016638;28;20178;-87
2023/06/14 11:05:55;;;;;;;4.43;2.60;;;23.00;99.90;;;;;;5006864;28;20178;-81
2023/06/14 11:08:33;;;;;;;2.97;2.28;;;23.40;99.90;;;;;;5025529;28;20181;-83
2023/06/14 11:11:00;;;;;;;2.25;2.05;;;23.10;99.90;;;;;;5034880;28;20200;-81
2023/06/14 11:13:26;;;;;;;2.50;2.30;;;23.20;99.90;;;;;;5053353;28;20261;-83
2023/06/14 11:15:56;;;;;;;2.60;2.28;;;23.50;99.90;;;;;;5053190;28;20209;-82
2023/06/14 11:18:27;;;;;;;2.30;2.10;;;24.10;99.90;;;;;;5052904;28;20177;-82
2023/06/14 11:20:53;;;;;;;2.90;2.30;;;24.80;99.90;;;;;;5035409;28;20247;-82
2023/06/14 11:23:18;;;;;;;2.60;2.40;;;24.90;99.90;;;;;;5035458;28;20648;-81
2023/06/14 11:25:50;;;;;;;2.55;2.20;;;24.70;99.90;;;;;;5034983;28;20288;-84
2023/06/14 11:28:15;;;;;;;3.05;2.00;;;24.50;99.90;;;;;;5049246;28;20231;-85
2023/06/14 11:30:41;;;;;;;2.90;2.28;;;24.50;99.90;;;;;;5035377;28;20174;-84
2023/06/14 11:33:10;;;;;;;2.55;2.35;;;24.50;99.90;;;;;;5036358;28;20169;-84
2023/06/14 11:35:36;;;;;;;2.72;2.03;;;24.50;99.90;;;;;;5053944;28;20181;-83
2023/06/14 11:38:01;;;;;;;2.65;2.40;;;24.70;99.90;;;;;;5056114;28;20523;-86
2023/06/14 11:40:30;;;;;;;2.33;2.13;;;24.90;99.90;;;;;;5036614;28;20185;-86
2023/06/14 11:43:00;;;;;;;3.08;2.30;;;24.80;99.90;;;;;;5057754;28;20181;-81
2023/06/14 11:45:26;;;;;;;3.35;2.30;;;24.80;99.90;;;;;;5040460;28;20247;-82
2023/06/14 11:47:58;;;;;;;2.72;2.28;;;24.20;99.90;;;;;;5058253;28;20170;-81
2023/06/14 11:50:25;;;;;;;4.72;2.60;;;23.90;99.90;;;;;;5058002;28;20162;-81
2023/06/14 11:52:59;;;;;;;3.30;2.45;;;23.40;99.90;;;;;;5040071;28;20201;-83
2023/06/14 11:55:25;;;;;;;2.75;2.40;;;23.50;99.90;;;;;;5040230;28;20166;-85
2023/06/14 11:57:53;;;;;;;2.50;2.30;;;24.10;99.90;;;;;;5081248;22;20236;-82
2023/06/14 12:00:21;;;;;;;4.30;2.55;;;24.60;99.90;;;;;;5036988;28;20170;-82
2023/06/14 12:02:55;;;;;;;2.50;2.30;;;24.30;99.90;;;;;;5037652;28;20180;-83
2023/06/14 12:05:22;;;;;;;5.88;2.40;;;24.70;99.90;;;;;;5037479;28;20173;-83
2023/06/14 12:07:48;;;;;;;2.60;2.40;;;25.30;99.90;;;;;;5037365;28;20204;-82
2023/06/14 12:10:14;;;;;;;2.47;2.25;;;25.50;99.90;;;;;;5037463;28;20664;-83
2023/06/14 12:12:41;;;;;;;2.97;2.50;;;25.80;99.90;;;;;;5037151;28;20197;-83
2023/06/14 12:15:09;;;;;;;3.53;2.10;;;25.50;99.90;;;;;;5037634;28;20174;-83
2023/06/14 12:17:36;;;;;;;2.50;2.30;;;25.50;99.90;;;;;;5037854;28;20695;-83
2023/06/14 12:20:10;;;;;;;3.17;2.35;;;25.30;99.90;;;;;;5037498;28;20182;-83
2023/06/14 12:22:37;;;;;;;3.55;2.10;;;25.40;99.90;;;;;;5037754;28;20176;-82
2023/06/14 12:25:04;;;;;;;2.78;2.22;;;25.40;99.90;;;;;;5037859;28;20176;-83
2023/06/14 12:27:29;;;;;;;2.47;2.20;;;24.80;99.90;;;;;;5037013;28;20201;-83
2023/06/14 12:29:59;;;;;;;2.67;2.10;;;24.50;99.90;;;;;;5037407;28;20671;-83
2023/06/14 12:32:25;;;;;;;2.20;2.00;;;24.30;99.90;;;;;;5038777;28;20216;-82
2023/06/14 12:34:50;;;;;;;2.58;2.38;;;24.40;99.90;;;;;;5039057;28;20185;-83
2023/06/14 12:37:16;;;;;;;2.42;2.22;;;24.90;99.90;;;;;;5039374;28;20292;-81
2023/06/14 12:39:41;;;;;;;3.15;2.40;;;25.80;99.90;;;;;;5038431;28;20188;-83
2023/06/14 12:42:07;;;;;;;3.13;2.22;;;25.60;99.90;;;;;;5072317;28;20174;-83
2023/06/14 12:44:35;;;;;;;2.40;2.20;;;26.10;99.90;;;;;;5039175;28;20235;-83
2023/06/14 12:47:01;;;;;;;3.28;2.22;;;26.00;99.90;;;;;;5039178;28;20194;-82
2023/06/14 12:49:26;;;;;;;2.30;2.10;;;25.30;99.90;;;;;;5056867;28;20231;-82
2023/06/14 12:51:52;;;;;;;3.97;2.50;;;25.10;99.90;;;;;;5039313;28;20211;-82